sensor_id;sensor_type;location;lat;lon;timestamp;pressure;altitude;pressure_sealevel;temperature;humidity
56334;BME280;42240;53.626;55.886;2023-03-18T00:01:14;77909.56;;;-145.10;60.59
56334;BME280;42240;53.626;55.886;2023-03-18T00:02:47;77905.59;;;-145.10;60.81
56334;BME280;42240;53.626;55.886;2023-03-18T00:04:21;77905.59;;;-145.10;60.91
56334;BME280;42240;53.626;55.886;2023-03-18T00:06:11;77891.75;;;-145.10;60.95
56334;BME280;42240;53.626;55.886;2023-03-18T00:07:45;77893.72;;;-145.10;61.11
56334;BME280;42240;53.626;55.886;2023-03-18T00:09:19;77889.78;;;-145.10;61.08
56334;BME280;42240;53.626;55.886;2023-03-18T00:10:52;77889.78;;;-145.10;61.03
56334;BME280;42240;53.626;55.886;2023-03-18T00:12:25;77897.69;;;-145.10;61.11
56334;BME280;42240;53.626;55.886;2023-03-18T00:13:59;77891.75;;;-145.10;61.18
56334;BME280;42240;53.626;55.886;2023-03-18T00:15:32;77929.34;;;-145.10;61.15
56334;BME280;42240;53.626;55.886;2023-03-18T00:17:05;77873.94;;;-145.10;60.96
56334;BME280;42240;53.626;55.886;2023-03-18T00:18:41;77881.88;;;-145.10;61.08
56334;BME280;42240;53.626;55.886;2023-03-18T00:20:16;77881.88;;;-145.10;60.94
56334;BME280;42240;53.626;55.886;2023-03-18T00:21:51;77881.88;;;-145.10;61.16
56334;BME280;42240;53.626;55.886;2023-03-18T00:23:24;77883.84;;;-145.10;61.27
56334;BME280;42240;53.626;55.886;2023-03-18T00:24:57;77877.91;;;-145.10;61.28
56334;BME280;42240;53.626;55.886;2023-03-18T00:26:31;77877.91;;;-145.10;61.30
56334;BME280;42240;53.626;55.886;2023-03-18T00:28:05;77870.00;;;-145.10;61.18
56334;BME280;42240;53.626;55.886;2023-03-18T00:29:38;77866.03;;;-145.10;61.14
56334;BME280;42240;53.626;55.886;2023-03-18T00:31:12;77873.94;;;-145.10;61.25
56334;BME280;42240;53.626;55.886;2023-03-18T00:32:45;77877.91;;;-145.10;61.77
56334;BME280;42240;53.626;55.886;2023-03-18T00:34:19;77870.00;;;-145.10;62.51
56334;BME280;42240;53.626;55.886;2023-03-18T00:35:52;77877.91;;;-145.10;62.98
56334;BME280;42240;53.626;55.886;2023-03-18T00:37:26;77875.94;;;-145.10;63.36
56334;BME280;42240;53.626;55.886;2023-03-18T00:39:03;77875.94;;;-145.10;64.09
56334;BME280;42240;53.626;55.886;2023-03-18T00:40:36;77887.78;;;-145.10;64.47
56334;BME280;42240;53.626;55.886;2023-03-18T00:42:24;77887.78;;;-145.10;64.97
56334;BME280;42240;53.626;55.886;2023-03-18T00:43:58;77903.63;;;-145.10;65.66
56334;BME280;42240;53.626;55.886;2023-03-18T00:45:31;77909.56;;;-145.10;66.12
56334;BME280;42240;53.626;55.886;2023-03-18T00:47:04;77911.53;;;-145.10;66.74
56334;BME280;42240;53.626;55.886;2023-03-18T00:48:38;77913.50;;;-145.10;66.81
56334;BME280;42240;53.626;55.886;2023-03-18T00:50:11;77917.47;;;-145.10;67.20
56334;BME280;42240;53.626;55.886;2023-03-18T00:51:45;77929.34;;;-145.10;67.22
56334;BME280;42240;53.626;55.886;2023-03-18T00:53:18;77931.31;;;-145.10;67.81
56334;BME280;42240;53.626;55.886;2023-03-18T00:54:51;77935.28;;;-145.10;67.89
56334;BME280;42240;53.626;55.886;2023-03-18T00:56:27;77947.13;;;-145.10;68.15
56334;BME280;42240;53.626;55.886;2023-03-18T00:58:01;77949.13;;;-145.10;68.76
56334;BME280;42240;53.626;55.886;2023-03-18T00:59:35;77945.16;;;-145.10;69.07
56334;BME280;42240;53.626;55.886;2023-03-18T01:01:08;77953.06;;;-145.10;69.17
56334;BME280;42240;53.626;55.886;2023-03-18T01:02:42;77949.13;;;-145.10;69.49
56334;BME280;42240;53.626;55.886;2023-03-18T01:04:15;77953.06;;;-145.10;69.26
56334;BME280;42240;53.626;55.886;2023-03-18T01:05:49;77949.13;;;-145.10;69.29
56334;BME280;42240;53.626;55.886;2023-03-18T01:07:23;77943.19;;;-145.10;69.80
56334;BME280;42240;53.626;55.886;2023-03-18T01:08:57;77945.16;;;-145.10;69.51
56334;BME280;42240;53.626;55.886;2023-03-18T01:10:30;77945.16;;;-145.10;69.32
56334;BME280;42240;53.626;55.886;2023-03-18T01:12:04;77937.25;;;-145.10;69.64
56334;BME280;42240;53.626;55.886;2023-03-18T01:13:38;77933.28;;;-145.10;69.35
56334;BME280;42240;53.626;55.886;2023-03-18T01:15:15;77943.19;;;-145.10;69.88
56334;BME280;42240;53.626;55.886;2023-03-18T01:16:49;77947.13;;;-145.10;70.18
56334;BME280;42240;53.626;55.886;2023-03-18T01:18:22;77957.03;;;-145.10;70.58
56334;BME280;42240;53.626;55.886;2023-03-18T01:19:56;77959.00;;;-145.10;71.42
56334;BME280;42240;53.626;55.886;2023-03-18T01:21:29;77960.97;;;-145.10;71.95
56334;BME280;42240;53.626;55.886;2023-03-18T01:23:05;77964.94;;;-145.10;72.23
56334;BME280;42240;53.626;55.886;2023-03-18T01:24:38;77968.91;;;-145.10;72.35
56334;BME280;42240;53.626;55.886;2023-03-18T01:26:13;77960.97;;;-145.10;72.49
56334;BME280;42240;53.626;55.886;2023-03-18T01:27:48;77972.84;;;-145.10;73.02
56334;BME280;42240;53.626;55.886;2023-03-18T01:29:21;77980.78;;;-145.10;73.76
56334;BME280;42240;53.626;55.886;2023-03-18T01:30:55;78020.31;;;-145.10;74.31
56334;BME280;42240;53.626;55.886;2023-03-18T01:32:29;77986.69;;;-145.10;74.44
56334;BME280;42240;53.626;55.886;2023-03-18T01:34:02;77992.63;;;-145.10;74.70
56334;BME280;42240;53.626;55.886;2023-03-18T01:35:44;77986.69;;;-145.10;74.80
56334;BME280;42240;53.626;55.886;2023-03-18T01:37:20;77988.69;;;-145.10;74.69
56334;BME280;42240;53.626;55.886;2023-03-18T01:39:02;78004.50;;;-145.10;75.33
56334;BME280;42240;53.626;55.886;2023-03-18T01:40:36;78000.53;;;-145.10;75.38
56334;BME280;42240;53.626;55.886;2023-03-18T01:42:14;78000.53;;;-145.10;75.93
56334;BME280;42240;53.626;55.886;2023-03-18T01:43:49;78000.53;;;-145.10;75.92
56334;BME280;42240;53.626;55.886;2023-03-18T01:45:28;77990.66;;;-145.10;76.30
56334;BME280;42240;53.626;55.886;2023-03-18T01:47:05;77994.63;;;-145.10;75.98
56334;BME280;42240;53.626;55.886;2023-03-18T01:48:41;78000.53;;;-145.10;75.85
56334;BME280;42240;53.626;55.886;2023-03-18T01:50:19;77994.63;;;-145.10;75.70
56334;BME280;42240;53.626;55.886;2023-03-18T01:51:57;77990.66;;;-145.10;75.54
56334;BME280;42240;53.626;55.886;2023-03-18T01:53:38;77986.69;;;-145.10;75.25
56334;BME280;42240;53.626;55.886;2023-03-18T01:55:16;77992.63;;;-145.10;75.76
56334;BME280;42240;53.626;55.886;2023-03-18T01:56:51;78077.69;;;-145.10;75.06
56334;BME280;42240;53.626;55.886;2023-03-18T01:58:32;77990.66;;;-145.10;75.80
56334;BME280;42240;53.626;55.886;2023-03-18T02:00:06;77988.69;;;-145.10;75.70
56334;BME280;42240;53.626;55.886;2023-03-18T02:01:55;77984.72;;;-145.10;75.48
56334;BME280;42240;53.626;55.886;2023-03-18T02:03:34;77992.63;;;-145.10;75.82
56334;BME280;42240;53.626;55.886;2023-03-18T02:05:10;77990.66;;;-145.10;75.36
56334;BME280;42240;53.626;55.886;2023-03-18T02:06:45;77992.63;;;-145.10;74.65
56334;BME280;42240;53.626;55.886;2023-03-18T02:08:18;77984.72;;;-145.10;74.06
56334;BME280;42240;53.626;55.886;2023-03-18T02:09:52;77982.75;;;-145.10;73.58
56334;BME280;42240;53.626;55.886;2023-03-18T02:11:26;77978.78;;;-145.10;73.47
56334;BME280;42240;53.626;55.886;2023-03-18T02:13:07;77968.91;;;-145.10;72.71
56334;BME280;42240;53.626;55.886;2023-03-18T02:14:43;77976.81;;;-145.10;72.91
56334;BME280;42240;53.626;55.886;2023-03-18T02:16:42;77960.97;;;-145.10;72.49
56334;BME280;42240;53.626;55.886;2023-03-18T02:18:20;77964.94;;;-145.10;72.25
56334;BME280;42240;53.626;55.886;2023-03-18T02:20:17;77968.91;;;-145.10;72.14
56334;BME280;42240;53.626;55.886;2023-03-18T02:28:34;77972.84;;;-145.10;73.51
56334;BME280;42240;53.626;55.886;2023-03-18T02:30:13;78000.53;;;-145.10;73.05
56334;BME280;42240;53.626;55.886;2023-03-18T02:31:50;77959.00;;;-145.10;73.02
56334;BME280;42240;53.626;55.886;2023-03-18T02:33:30;77949.13;;;-145.10;72.79
56334;BME280;42240;53.626;55.886;2023-03-18T02:35:08;77943.19;;;-145.10;72.43
56334;BME280;42240;53.626;55.886;2023-03-18T02:36:44;77945.16;;;-145.10;72.28
56334;BME280;42240;53.626;55.886;2023-03-18T02:38:17;77974.84;;;-145.10;72.06
56334;BME280;42240;53.626;55.886;2023-03-18T02:39:52;77933.28;;;-145.10;71.56
56334;BME280;42240;53.626;55.886;2023-03-18T02:41:30;77933.28;;;-145.10;71.95
56334;BME280;42240;53.626;55.886;2023-03-18T02:43:30;77925.38;;;-145.10;72.32
56334;BME280;42240;53.626;55.886;2023-03-18T02:45:16;77923.41;;;-145.10;73.10
56334;BME280;42240;53.626;55.886;2023-03-18T02:47:16;77913.50;;;-145.10;73.37
56334;BME280;42240;53.626;55.886;2023-03-18T02:48:52;77909.56;;;-145.10;73.65
56334;BME280;42240;53.626;55.886;2023-03-18T02:50:25;77905.59;;;-145.10;74.46
56334;BME280;42240;53.626;55.886;2023-03-18T02:51:59;77858.13;;;-145.10;74.05
56334;BME280;42240;53.626;55.886;2023-03-18T02:53:33;77792.84;;;-145.10;72.04
56334;BME280;42240;53.626;55.886;2023-03-18T02:55:07;77705.81;;;-145.10;68.55
56334;BME280;42240;53.626;55.886;2023-03-18T02:56:41;77557.47;;;-145.10;64.06
56334;BME280;42240;53.626;55.886;2023-03-18T02:58:15;77466.50;;;-145.10;59.55
56334;BME280;42240;53.626;55.886;2023-03-18T02:59:50;77383.44;;;-145.10;57.12
56334;BME280;42240;53.626;55.886;2023-03-18T03:01:23;77498.16;;;-145.10;55.23
56334;BME280;42240;53.626;55.886;2023-03-18T03:02:57;77383.44;;;-145.10;54.60
56334;BME280;42240;53.626;55.886;2023-03-18T03:04:30;77292.44;;;-145.10;54.01
56334;BME280;42240;53.626;55.886;2023-03-18T03:06:04;77237.06;;;-145.10;51.65
56334;BME280;42240;53.626;55.886;2023-03-18T03:07:37;77213.34;;;-145.10;51.12
56334;BME280;42240;53.626;55.886;2023-03-18T03:09:14;77140.16;;;-145.10;49.93
56334;BME280;42240;53.626;55.886;2023-03-18T03:10:48;77041.28;;;-145.10;49.15
56334;BME280;42240;53.626;55.886;2023-03-18T03:12:23;77019.53;;;-145.10;47.96
56334;BME280;42240;53.626;55.886;2023-03-18T03:14:00;76974.06;;;-145.10;47.58
56334;BME280;42240;53.626;55.886;2023-03-18T03:15:36;76966.13;;;-145.10;47.19
56334;BME280;42240;53.626;55.886;2023-03-18T03:17:10;76922.63;;;-145.10;46.67
56334;BME280;42240;53.626;55.886;2023-03-18T03:18:43;76936.47;;;-145.10;46.11
56334;BME280;42240;53.626;55.886;2023-03-18T03:20:17;76968.13;;;-145.10;46.36
56334;BME280;42240;53.626;55.886;2023-03-18T03:21:50;76962.19;;;-145.10;46.18
56334;BME280;42240;53.626;55.886;2023-03-18T03:23:22;76867.25;;;-145.10;45.65
56334;BME280;42240;53.626;55.886;2023-03-18T03:24:56;76900.88;;;-145.10;45.53
56334;BME280;42240;53.626;55.886;2023-03-18T03:26:29;76768.38;;;-145.10;45.70
56334;BME280;42240;53.626;55.886;2023-03-18T03:28:04;76732.78;;;-145.10;45.60
56334;BME280;42240;53.626;55.886;2023-03-18T03:29:37;76604.25;;;-145.10;45.54
56334;BME280;42240;53.626;55.886;2023-03-18T03:31:11;76475.72;;;-145.10;45.10
56334;BME280;42240;53.626;55.886;2023-03-18T03:32:45;76404.53;;;-145.10;44.00
56334;BME280;42240;53.626;55.886;2023-03-18T03:34:21;76434.19;;;-145.10;42.54
56334;BME280;42240;53.626;55.886;2023-03-18T03:35:54;76452.00;;;-145.10;41.58
56334;BME280;42240;53.626;55.886;2023-03-18T03:37:29;76386.75;;;-145.10;41.00
56334;BME280;42240;53.626;55.886;2023-03-18T03:39:02;76359.06;;;-145.10;39.56
56334;BME280;42240;53.626;55.886;2023-03-18T03:40:39;76410.47;;;-145.10;38.83
56334;BME280;42240;53.626;55.886;2023-03-18T03:42:15;76473.75;;;-145.10;38.72
56334;BME280;42240;53.626;55.886;2023-03-18T03:43:47;76501.44;;;-145.10;38.81
56334;BME280;42240;53.626;55.886;2023-03-18T03:45:21;76592.41;;;-145.10;38.82
56334;BME280;42240;53.626;55.886;2023-03-18T03:46:57;76703.13;;;-145.10;39.53
56334;BME280;42240;53.626;55.886;2023-03-18T03:48:30;76592.41;;;-145.10;39.41
56334;BME280;42240;53.626;55.886;2023-03-18T03:50:04;76418.38;;;-145.10;38.35
56334;BME280;42240;53.626;55.886;2023-03-18T03:51:37;76347.19;;;-145.10;37.31
56334;BME280;42240;53.626;55.886;2023-03-18T03:53:11;76248.34;;;-145.10;36.51
56334;BME280;42240;53.626;55.886;2023-03-18T03:54:45;76204.84;;;-145.10;35.42
56334;BME280;42240;53.626;55.886;2023-03-18T03:56:18;76145.53;;;-145.10;35.37
56334;BME280;42240;53.626;55.886;2023-03-18T03:57:51;76153.44;;;-145.10;34.97
56334;BME280;42240;53.626;55.886;2023-03-18T03:59:25;76034.81;;;-145.10;34.11
56334;BME280;42240;53.626;55.886;2023-03-18T04:01:29;76078.31;;;-145.10;33.36
56334;BME280;42240;53.626;55.886;2023-03-18T04:03:02;76094.13;;;-145.10;33.57
56334;BME280;42240;53.626;55.886;2023-03-18T04:04:37;76094.13;;;-145.10;33.82
56334;BME280;42240;53.626;55.886;2023-03-18T04:06:16;76222.63;;;-145.10;33.49
56334;BME280;42240;53.626;55.886;2023-03-18T04:07:58;76274.03;;;-145.10;34.29
56334;BME280;42240;53.626;55.886;2023-03-18T04:09:42;76145.53;;;-145.10;34.23
56334;BME280;42240;53.626;55.886;2023-03-18T04:11:15;76015.03;;;-145.10;33.73
56334;BME280;42240;53.626;55.886;2023-03-18T04:12:49;75997.25;;;-145.10;32.96
56334;BME280;42240;53.626;55.886;2023-03-18T04:14:22;76098.06;;;-145.10;32.63
56334;BME280;42240;53.626;55.886;2023-03-18T04:15:55;76026.91;;;-145.10;32.68
56334;BME280;42240;53.626;55.886;2023-03-18T04:17:28;75977.47;;;-145.10;32.07
56334;BME280;42240;53.626;55.886;2023-03-18T04:19:01;75904.31;;;-145.10;32.39
56334;BME280;42240;53.626;55.886;2023-03-18T04:20:35;75928.03;;;-145.10;31.93
56334;BME280;42240;53.626;55.886;2023-03-18T04:22:21;75912.22;;;-145.10;32.21
56334;BME280;42240;53.626;55.886;2023-03-18T04:23:55;75943.88;;;-145.10;31.81
56334;BME280;42240;53.626;55.886;2023-03-18T04:25:28;75880.59;;;-145.10;31.79
56334;BME280;42240;53.626;55.886;2023-03-18T04:27:02;75991.31;;;-145.10;31.54
56334;BME280;42240;53.626;55.886;2023-03-18T04:28:35;76145.53;;;-145.10;32.75
56334;BME280;42240;53.626;55.886;2023-03-18T04:30:13;76196.94;;;-145.10;33.16
56334;BME280;42240;53.626;55.886;2023-03-18T04:32:02;76034.81;;;-145.10;32.61
56334;BME280;42240;53.626;55.886;2023-03-18T04:33:35;75928.03;;;-145.10;32.75
56334;BME280;42240;53.626;55.886;2023-03-18T04:35:16;75823.25;;;-145.10;31.77
56334;BME280;42240;53.626;55.886;2023-03-18T04:36:50;75746.16;;;-145.10;31.58
56334;BME280;42240;53.626;55.886;2023-03-18T04:38:23;75769.88;;;-145.10;31.03
56334;BME280;42240;53.626;55.886;2023-03-18T04:39:57;75704.63;;;-145.10;30.54
56334;BME280;42240;53.626;55.886;2023-03-18T04:41:31;75702.66;;;-145.10;30.77
56334;BME280;42240;53.626;55.886;2023-03-18T04:43:07;75698.72;;;-145.10;30.69
56334;BME280;42240;53.626;55.886;2023-03-18T04:44:41;75702.66;;;-145.10;30.29
56334;BME280;42240;53.626;55.886;2023-03-18T04:46:14;75671.03;;;-145.10;30.42
56334;BME280;42240;53.626;55.886;2023-03-18T04:47:50;75678.94;;;-145.10;30.46
56334;BME280;42240;53.626;55.886;2023-03-18T04:49:23;75639.41;;;-145.10;30.23
56334;BME280;42240;53.626;55.886;2023-03-18T04:50:58;75584.06;;;-145.10;30.21
56334;BME280;42240;53.626;55.886;2023-03-18T04:52:34;75560.31;;;-145.10;30.27
56334;BME280;42240;53.626;55.886;2023-03-18T04:54:21;75510.91;;;-145.10;29.92
56334;BME280;42240;53.626;55.886;2023-03-18T04:55:58;75564.28;;;-145.10;29.52
56334;BME280;42240;53.626;55.886;2023-03-18T04:57:40;75589.97;;;-145.10;29.34
56334;BME280;42240;53.626;55.886;2023-03-18T04:59:18;75491.13;;;-145.10;29.70
56334;BME280;42240;53.626;55.886;2023-03-18T05:00:52;75518.81;;;-145.10;29.36
56334;BME280;42240;53.626;55.886;2023-03-18T05:02:30;75576.13;;;-145.10;29.57
56334;BME280;42240;53.626;55.886;2023-03-18T05:04:03;75609.75;;;-145.10;29.19
56334;BME280;42240;53.626;55.886;2023-03-18T05:05:47;75599.88;;;-145.10;29.55
56334;BME280;42240;53.626;55.886;2023-03-18T05:07:26;75536.59;;;-145.10;29.79
56334;BME280;42240;53.626;55.886;2023-03-18T05:09:06;75512.88;;;-145.10;29.34
56334;BME280;42240;53.626;55.886;2023-03-18T05:10:41;75449.63;;;-145.10;29.16
56334;BME280;42240;53.626;55.886;2023-03-18T05:12:17;75506.94;;;-145.10;29.09
56334;BME280;42240;53.626;55.886;2023-03-18T05:13:50;75473.34;;;-145.10;29.44
56334;BME280;42240;53.626;55.886;2023-03-18T05:15:25;75501.03;;;-145.10;29.46
56334;BME280;42240;53.626;55.886;2023-03-18T05:17:02;75461.47;;;-145.10;29.22
56334;BME280;42240;53.626;55.886;2023-03-18T05:18:39;75445.66;;;-145.10;29.67
56334;BME280;42240;53.626;55.886;2023-03-18T05:20:14;75542.53;;;-145.10;29.15
56334;BME280;42240;53.626;55.886;2023-03-18T05:21:49;75714.53;;;-145.10;29.76
56334;BME280;42240;53.626;55.886;2023-03-18T05:23:23;75605.78;;;-145.10;30.38
56334;BME280;42240;53.626;55.886;2023-03-18T05:25:00;75655.22;;;-145.10;30.00
56334;BME280;42240;53.626;55.886;2023-03-18T05:26:35;75558.34;;;-145.10;30.46
56334;BME280;42240;53.626;55.886;2023-03-18T05:28:09;75607.78;;;-145.10;30.01
56334;BME280;42240;53.626;55.886;2023-03-18T05:29:52;75825.25;;;-145.10;30.75
56334;BME280;42240;53.626;55.886;2023-03-18T05:31:36;75631.50;;;-145.10;30.46
56334;BME280;42240;53.626;55.886;2023-03-18T05:33:09;75566.25;;;-145.10;29.94
56334;BME280;42240;53.626;55.886;2023-03-18T05:34:48;75588.00;;;-145.10;29.94
56334;BME280;42240;53.626;55.886;2023-03-18T05:36:21;75542.53;;;-145.10;29.43
56334;BME280;42240;53.626;55.886;2023-03-18T05:38:01;75457.53;;;-145.10;29.28
56334;BME280;42240;53.626;55.886;2023-03-18T05:39:34;75520.78;;;-145.10;28.90
56334;BME280;42240;53.626;55.886;2023-03-18T05:41:13;75465.44;;;-145.10;28.92
56334;BME280;42240;53.626;55.886;2023-03-18T05:42:46;75410.09;;;-145.10;29.19
56334;BME280;42240;53.626;55.886;2023-03-18T05:44:35;75449.63;;;-145.10;29.11
56334;BME280;42240;53.626;55.886;2023-03-18T05:46:10;75402.19;;;-145.10;28.90
56334;BME280;42240;53.626;55.886;2023-03-18T05:48:02;75497.06;;;-145.10;29.15
56334;BME280;42240;53.626;55.886;2023-03-18T05:49:42;75544.50;;;-145.10;28.77
56334;BME280;42240;53.626;55.886;2023-03-18T05:51:24;75522.75;;;-145.10;28.92
56334;BME280;42240;53.626;55.886;2023-03-18T05:53:01;75572.19;;;-145.10;29.59
56334;BME280;42240;53.626;55.886;2023-03-18T05:54:38;75645.34;;;-145.10;30.12
56334;BME280;42240;53.626;55.886;2023-03-18T05:56:11;75615.69;;;-145.10;30.07
56334;BME280;42240;53.626;55.886;2023-03-18T05:57:48;75651.25;;;-145.10;30.38
56334;BME280;42240;53.626;55.886;2023-03-18T05:59:22;75661.16;;;-145.10;30.17
56334;BME280;42240;53.626;55.886;2023-03-18T06:01:02;75722.44;;;-145.10;30.16
56334;BME280;42240;53.626;55.886;2023-03-18T06:02:35;75736.28;;;-145.10;30.22
56334;BME280;42240;53.626;55.886;2023-03-18T06:04:08;75754.06;;;-145.10;30.71
56334;BME280;42240;53.626;55.886;2023-03-18T06:05:41;75760.00;;;-145.10;31.01
56334;BME280;42240;53.626;55.886;2023-03-18T06:07:14;75730.34;;;-145.10;30.99
56334;BME280;42240;53.626;55.886;2023-03-18T06:08:48;75708.59;;;-145.10;30.47
56334;BME280;42240;53.626;55.886;2023-03-18T06:10:21;75661.16;;;-145.10;30.26
56334;BME280;42240;53.626;55.886;2023-03-18T06:11:57;75639.41;;;-145.10;29.70
56334;BME280;42240;53.626;55.886;2023-03-18T06:13:31;75623.59;;;-145.10;29.88
56334;BME280;42240;53.626;55.886;2023-03-18T06:15:09;75647.31;;;-145.10;29.85
56334;BME280;42240;53.626;55.886;2023-03-18T06:16:43;75588.00;;;-145.10;29.70
56334;BME280;42240;53.626;55.886;2023-03-18T06:18:17;75540.56;;;-145.10;29.42
56334;BME280;42240;53.626;55.886;2023-03-18T06:19:50;75497.06;;;-145.10;29.78
56334;BME280;42240;53.626;55.886;2023-03-18T06:21:23;75508.94;;;-145.10;29.49
56334;BME280;42240;53.626;55.886;2023-03-18T06:22:56;75532.66;;;-145.10;29.16
56334;BME280;42240;53.626;55.886;2023-03-18T06:24:31;75497.06;;;-145.10;29.76
56334;BME280;42240;53.626;55.886;2023-03-18T06:26:05;75504.97;;;-145.10;29.36
56334;BME280;42240;53.626;55.886;2023-03-18T06:27:49;75568.22;;;-145.10;29.57
56334;BME280;42240;53.626;55.886;2023-03-18T06:29:25;75560.31;;;-145.10;29.61
56334;BME280;42240;53.626;55.886;2023-03-18T06:31:05;75518.81;;;-145.10;29.76
56334;BME280;42240;53.626;55.886;2023-03-18T06:32:38;75536.59;;;-145.10;29.71
56334;BME280;42240;53.626;55.886;2023-03-18T06:34:12;75560.31;;;-145.10;29.75
56334;BME280;42240;53.626;55.886;2023-03-18T06:35:47;75584.06;;;-145.10;29.60
56334;BME280;42240;53.626;55.886;2023-03-18T06:37:22;75673.00;;;-145.10;30.44
56334;BME280;42240;53.626;55.886;2023-03-18T06:38:55;75696.72;;;-145.10;30.33
56334;BME280;42240;53.626;55.886;2023-03-18T06:40:30;75858.84;;;-145.10;31.32
56334;BME280;42240;53.626;55.886;2023-03-18T06:42:06;75912.22;;;-145.10;32.00
56334;BME280;42240;53.626;55.886;2023-03-18T06:43:42;75959.69;;;-145.10;32.28
56334;BME280;42240;53.626;55.886;2023-03-18T06:45:16;75963.63;;;-145.10;32.22
56334;BME280;42240;53.626;55.886;2023-03-18T06:47:03;75987.34;;;-145.10;32.39
56334;BME280;42240;53.626;55.886;2023-03-18T06:48:40;76046.66;;;-145.10;32.92
56334;BME280;42240;53.626;55.886;2023-03-18T06:50:15;76102.03;;;-145.10;33.56
56334;BME280;42240;53.626;55.886;2023-03-18T06:51:49;76187.03;;;-145.10;33.96
56334;BME280;42240;53.626;55.886;2023-03-18T06:53:23;76189.03;;;-145.10;34.32
56334;BME280;42240;53.626;55.886;2023-03-18T06:54:57;76181.13;;;-145.10;34.80
56334;BME280;42240;53.626;55.886;2023-03-18T06:56:32;76155.41;;;-145.10;34.58
56334;BME280;42240;53.626;55.886;2023-03-18T06:58:17;76202.88;;;-145.10;34.73
56334;BME280;42240;53.626;55.886;2023-03-18T07:00:01;76226.59;;;-145.10;35.07
56334;BME280;42240;53.626;55.886;2023-03-18T07:01:35;76242.41;;;-145.10;35.07
56334;BME280;42240;53.626;55.886;2023-03-18T07:03:08;76256.25;;;-145.10;35.34
56334;BME280;42240;53.626;55.886;2023-03-18T07:04:42;76248.34;;;-145.10;35.54
56334;BME280;42240;53.626;55.886;2023-03-18T07:06:15;76244.38;;;-145.10;35.69
56334;BME280;42240;53.626;55.886;2023-03-18T07:07:50;76264.16;;;-145.10;35.68
56334;BME280;42240;53.626;55.886;2023-03-18T07:09:23;76279.97;;;-145.10;35.93
56334;BME280;42240;53.626;55.886;2023-03-18T07:10:59;76303.69;;;-145.10;36.05
56334;BME280;42240;53.626;55.886;2023-03-18T07:12:32;76281.97;;;-145.10;36.16
56334;BME280;42240;53.626;55.886;2023-03-18T07:14:05;76323.47;;;-145.10;36.32
56334;BME280;42240;53.626;55.886;2023-03-18T07:15:40;76291.84;;;-145.10;36.46
56334;BME280;42240;53.626;55.886;2023-03-18T07:17:14;76295.78;;;-145.10;36.84
56334;BME280;42240;53.626;55.886;2023-03-18T07:18:48;76240.44;;;-145.10;36.49
56334;BME280;42240;53.626;55.886;2023-03-18T07:20:21;76287.88;;;-145.10;36.67
56334;BME280;42240;53.626;55.886;2023-03-18T07:21:55;76333.38;;;-145.10;37.00
56334;BME280;42240;53.626;55.886;2023-03-18T07:23:29;76339.28;;;-145.10;36.52
56334;BME280;42240;53.626;55.886;2023-03-18T07:25:03;76359.06;;;-145.10;36.76
56334;BME280;42240;53.626;55.886;2023-03-18T07:26:37;76363.03;;;-145.10;37.40
56334;BME280;42240;53.626;55.886;2023-03-18T07:28:13;76361.03;;;-145.10;37.12
56334;BME280;42240;53.626;55.886;2023-03-18T07:29:47;76355.13;;;-145.10;37.52
56334;BME280;42240;53.626;55.886;2023-03-18T07:31:20;76418.38;;;-145.10;37.31
56334;BME280;42240;53.626;55.886;2023-03-18T07:32:53;76408.50;;;-145.10;38.16
56334;BME280;42240;53.626;55.886;2023-03-18T07:34:28;76351.16;;;-145.10;37.55
56334;BME280;42240;53.626;55.886;2023-03-18T07:36:01;76343.25;;;-145.10;37.46
56334;BME280;42240;53.626;55.886;2023-03-18T07:37:35;76442.13;;;-145.10;37.70
56334;BME280;42240;53.626;55.886;2023-03-18T07:39:08;76414.44;;;-145.10;38.09
56334;BME280;42240;53.626;55.886;2023-03-18T07:40:44;76452.00;;;-145.10;38.13
56334;BME280;42240;53.626;55.886;2023-03-18T07:42:17;76469.78;;;-145.10;38.52
56334;BME280;42240;53.626;55.886;2023-03-18T07:43:51;76521.22;;;-145.10;38.96
56334;BME280;42240;53.626;55.886;2023-03-18T07:45:24;76513.28;;;-145.10;39.29
56334;BME280;42240;53.626;55.886;2023-03-18T07:46:56;76481.66;;;-145.10;38.77
56334;BME280;42240;53.626;55.886;2023-03-18T07:48:30;76479.69;;;-145.10;38.56
56334;BME280;42240;53.626;55.886;2023-03-18T07:50:03;76511.31;;;-145.10;38.78
56334;BME280;42240;53.626;55.886;2023-03-18T07:51:37;76537.03;;;-145.10;38.81
56334;BME280;42240;53.626;55.886;2023-03-18T07:53:09;76544.94;;;-145.10;39.18
56334;BME280;42240;53.626;55.886;2023-03-18T07:54:45;76584.47;;;-145.10;40.05
56334;BME280;42240;53.626;55.886;2023-03-18T07:56:18;76556.81;;;-145.10;40.06
56334;BME280;42240;53.626;55.886;2023-03-18T07:57:52;76509.34;;;-145.10;39.99
56334;BME280;42240;53.626;55.886;2023-03-18T07:59:25;76560.75;;;-145.10;39.92
56334;BME280;42240;53.626;55.886;2023-03-18T08:00:59;76533.06;;;-145.10;39.89
56334;BME280;42240;53.626;55.886;2023-03-18T08:02:32;76562.72;;;-145.10;39.92
56334;BME280;42240;53.626;55.886;2023-03-18T08:04:06;76548.88;;;-145.10;39.67
56334;BME280;42240;53.626;55.886;2023-03-18T08:05:40;76552.84;;;-145.10;39.83
56334;BME280;42240;53.626;55.886;2023-03-18T08:07:12;76552.84;;;-145.10;39.87
56334;BME280;42240;53.626;55.886;2023-03-18T08:08:46;76568.66;;;-145.10;40.07
56334;BME280;42240;53.626;55.886;2023-03-18T08:10:19;76566.69;;;-145.10;40.13
56334;BME280;42240;53.626;55.886;2023-03-18T08:11:53;76572.63;;;-145.10;39.93
56334;BME280;42240;53.626;55.886;2023-03-18T08:13:26;76596.34;;;-145.10;40.07
56334;BME280;42240;53.626;55.886;2023-03-18T08:14:59;76570.63;;;-145.10;39.96